Time;durP1;ratioP1;P1;durP2;ratioP2;P2;SDS_P1;SDS_P2;PMS_P1;PMS_P2;Temp;Humidity;BMP_temperature;BMP_pressure;BME280_temperature;BME280_humidity;BME280_pressure;Samples;Min_cycle;Max_cycle;Signal;HPM_P1;HPM_P2
2022/09/26 00:01:25;;;;;;;9.40;4.93;;;11.30;99.90;;;;;;4953878;28;20557;-59
2022/09/26 00:03:56;;;;;;;7.82;5.10;;;11.30;99.90;;;;;;4958732;28;20112;-59
2022/09/26 00:06:23;;;;;;;7.18;5.07;;;11.70;99.90;;;;;;4950950;28;20146;-59
2022/09/26 00:08:50;;;;;;;9.65;5.13;;;11.70;99.90;;;;;;4958125;28;20485;-59
2022/09/26 00:11:22;;;;;;;7.65;4.97;;;11.70;99.90;;;;;;4950854;28;20055;-58
2022/09/26 00:13:51;;;;;;;10.68;4.95;;;11.70;99.90;;;;;;4956537;28;20122;-59
2022/09/26 00:16:17;;;;;;;9.60;4.95;;;11.70;99.90;;;;;;4957956;28;20525;-59
2022/09/26 00:18:46;;;;;;;8.10;5.18;;;11.80;99.90;;;;;;4953752;28;20039;-59
2022/09/26 00:21:13;;;;;;;6.82;4.63;;;11.90;99.90;;;;;;4956331;28;20039;-59
2022/09/26 00:23:40;;;;;;;6.93;5.07;;;11.80;99.90;;;;;;4950824;28;20043;-58
2022/09/26 00:26:06;;;;;;;7.05;4.93;;;12.00;99.90;;;;;;4954583;28;20118;-59
2022/09/26 00:28:32;;;;;;;7.95;4.75;;;12.00;99.90;;;;;;4954441;28;20051;-59
2022/09/26 00:31:22;;;;;;;7.18;4.72;;;12.00;99.90;;;;;;4959217;28;20047;-59
2022/09/26 00:33:48;;;;;;;9.15;5.10;;;11.90;99.90;;;;;;4956497;28;20086;-58
2022/09/26 00:36:13;;;;;;;7.95;4.60;;;12.10;99.90;;;;;;4958998;28;20050;-59
2022/09/26 00:38:39;;;;;;;9.90;5.18;;;12.00;99.90;;;;;;4954158;28;20137;-58
2022/09/26 00:41:06;;;;;;;11.18;5.07;;;11.90;99.90;;;;;;4957707;28;20069;-57
2022/09/26 00:43:45;;;;;;;8.25;4.95;;;11.80;99.90;;;;;;4960343;28;20039;-59
2022/09/26 00:46:24;;;;;;;9.15;5.13;;;12.10;99.90;;;;;;4953297;28;20042;-59
2022/09/26 00:49:04;;;;;;;11.60;5.05;;;12.10;99.90;;;;;;4958813;28;20039;-59
2022/09/26 00:51:32;;;;;;;10.70;5.47;;;12.10;99.90;;;;;;4954135;28;20510;-58
2022/09/26 00:53:58;;;;;;;8.45;5.75;;;12.20;99.90;;;;;;4953117;28;20447;-58
2022/09/26 00:56:31;;;;;;;9.32;5.95;;;12.30;99.90;;;;;;4956502;28;20023;-58
2022/09/26 00:59:05;;;;;;;11.32;5.85;;;12.40;99.90;;;;;;4954632;28;20028;-59
2022/09/26 01:01:30;;;;;;;8.98;5.25;;;12.40;99.90;;;;;;4958823;28;20468;-58
2022/09/26 01:03:57;;;;;;;7.13;5.15;;;12.40;99.90;;;;;;4959340;28;20055;-59
2022/09/26 01:06:23;;;;;;;8.45;5.50;;;12.50;99.90;;;;;;4956290;28;20515;-59
2022/09/26 01:09:00;;;;;;;8.55;5.47;;;12.40;99.90;;;;;;4954219;28;20074;-59
2022/09/26 01:11:27;;;;;;;9.35;5.38;;;12.30;99.90;;;;;;4957317;28;20404;-59
2022/09/26 01:13:53;;;;;;;10.48;6.20;;;12.20;99.90;;;;;;4960277;28;21121;-59
2022/09/26 01:16:19;;;;;;;9.18;5.47;;;12.40;99.90;;;;;;4960640;28;20046;-58
2022/09/26 01:18:46;;;;;;;13.15;6.28;;;12.20;99.90;;;;;;4956334;28;20533;-59
2022/09/26 01:21:51;;;;;;;10.77;6.10;;;12.20;99.90;;;;;;4958757;28;20027;-57
2022/09/26 01:24:38;;;;;;;10.95;6.10;;;12.30;99.90;;;;;;4951178;28;20036;-59
2022/09/26 01:27:40;;;;;;;8.93;5.85;;;12.40;99.90;;;;;;4952056;28;20035;-59
2022/09/26 01:30:20;;;;;;;14.10;6.50;;;12.30;99.90;;;;;;4955724;28;20039;-59
2022/09/26 01:33:05;;;;;;;10.05;6.03;;;12.30;99.90;;;;;;4958797;28;20050;-59
2022/09/26 01:35:51;;;;;;;10.43;6.30;;;12.50;99.90;;;;;;4953910;28;20125;-59
2022/09/26 01:38:42;;;;;;;10.90;6.72;;;12.60;99.90;;;;;;4958899;28;20055;-59
2022/09/26 01:41:41;;;;;;;8.85;6.32;;;12.60;99.90;;;;;;4953821;28;20031;-58
2022/09/26 01:44:14;;;;;;;11.15;6.18;;;12.70;99.90;;;;;;4962523;28;20097;-59
2022/09/26 01:46:55;;;;;;;12.75;6.85;;;12.60;99.90;;;;;;4957274;28;20558;-59
2022/09/26 01:49:39;;;;;;;13.05;6.50;;;12.60;99.90;;;;;;4958605;28;20166;-59
2022/09/26 01:52:31;;;;;;;8.90;6.00;;;12.60;99.90;;;;;;4954541;28;20148;-59
2022/09/26 01:55:08;;;;;;;11.02;6.60;;;12.50;99.90;;;;;;4952058;28;20075;-59
2022/09/26 01:57:43;;;;;;;9.43;6.95;;;12.60;99.90;;;;;;4958299;28;20039;-59
2022/09/26 02:00:11;;;;;;;12.85;6.60;;;12.70;99.90;;;;;;4963994;28;20458;-59
2022/09/26 02:02:41;;;;;;;12.63;6.68;;;12.80;99.90;;;;;;4959839;28;20035;-58
2022/09/26 02:05:27;;;;;;;10.75;6.70;;;12.70;99.90;;;;;;4953845;28;20043;-59
2022/09/26 02:08:16;;;;;;;11.68;6.18;;;12.60;99.90;;;;;;4959523;28;20035;-59
2022/09/26 02:10:55;;;;;;;9.60;6.45;;;12.40;99.90;;;;;;4954418;28;20624;-58
2022/09/26 02:13:30;;;;;;;11.52;6.82;;;12.20;99.90;;;;;;4959081;28;20135;-58
2022/09/26 02:16:00;;;;;;;11.38;6.22;;;12.20;99.90;;;;;;4959800;28;20370;-58
2022/09/26 02:19:12;;;;;;;9.05;6.85;;;12.00;99.90;;;;;;4955418;28;20500;-58
2022/09/26 02:21:40;;;;;;;10.15;6.70;;;12.20;99.90;;;;;;4950587;28;20042;-59
2022/09/26 02:24:06;;;;;;;8.32;6.05;;;12.30;99.90;;;;;;4962247;28;20509;-58
2022/09/26 02:26:32;;;;;;;9.52;7.00;;;12.40;99.90;;;;;;4953172;28;20039;-59
2022/09/26 02:28:58;;;;;;;10.88;6.43;;;12.40;99.90;;;;;;4961239;28;20063;-59
2022/09/26 02:31:26;;;;;;;9.35;7.10;;;12.50;99.90;;;;;;4959107;28;20060;-59
2022/09/26 02:33:52;;;;;;;9.23;7.18;;;12.50;99.90;;;;;;4957677;28;20491;-55
2022/09/26 02:36:19;;;;;;;12.00;7.75;;;12.50;99.90;;;;;;4960781;28;20663;-59
2022/09/26 02:38:45;;;;;;;12.65;7.53;;;12.60;99.90;;;;;;4954070;28;20042;-59
2022/09/26 02:41:49;;;;;;;11.05;7.97;;;12.60;99.90;;;;;;4955966;28;20051;-59
2022/09/26 02:44:46;;;;;;;11.20;7.32;;;12.60;99.90;;;;;;4915953;28;20359;-59
2022/09/26 02:47:50;;;;;;;11.48;7.50;;;12.40;99.90;;;;;;4958643;28;20038;-58
2022/09/26 02:50:37;;;;;;;10.15;7.78;;;12.40;99.90;;;;;;4957275;28;20141;-58
2022/09/26 02:53:35;;;;;;;9.55;7.55;;;12.50;99.90;;;;;;4950763;28;20027;-59
2022/09/26 02:56:22;;;;;;;11.15;8.32;;;12.50;99.90;;;;;;4952990;28;20522;-58
2022/09/26 02:59:02;;;;;;;12.45;8.23;;;12.60;99.90;;;;;;4953926;28;20616;-59
2022/09/26 03:01:40;;;;;;;12.38;8.02;;;12.50;99.90;;;;;;4952521;28;21473;-58
2022/09/26 03:04:27;;;;;;;12.77;8.20;;;12.50;99.90;;;;;;4953087;28;20035;-58
2022/09/26 03:06:59;;;;;;;11.23;7.80;;;12.50;99.90;;;;;;4955802;28;20041;-59
2022/09/26 03:09:26;;;;;;;12.93;7.88;;;12.40;99.90;;;;;;4959290;28;20097;-59
2022/09/26 03:11:53;;;;;;;11.18;7.80;;;12.50;99.90;;;;;;4957341;28;20138;-59
2022/09/26 03:14:20;;;;;;;10.18;7.55;;;12.50;99.90;;;;;;4956033;28;20105;-58
2022/09/26 03:16:48;;;;;;;11.40;7.72;;;12.50;99.90;;;;;;4955300;28;20045;-59
2022/09/26 03:19:25;;;;;;;12.43;7.90;;;12.50;99.90;;;;;;4958440;28;20054;-59
2022/09/26 03:21:51;;;;;;;12.35;8.27;;;12.50;99.90;;;;;;4955698;28;20082;-58
2022/09/26 03:24:16;;;;;;;11.93;8.52;;;12.50;99.90;;;;;;4961356;28;20046;-59
2022/09/26 03:26:42;;;;;;;11.95;8.15;;;12.60;99.90;;;;;;4959705;28;20469;-58
2022/09/26 03:29:08;;;;;;;11.07;7.78;;;12.50;99.90;;;;;;4960483;28;20059;-59
2022/09/26 03:31:33;;;;;;;12.77;8.10;;;12.50;99.90;;;;;;4958038;28;20514;-58
2022/09/26 03:33:59;;;;;;;13.43;7.72;;;12.40;99.90;;;;;;4956134;28;20094;-57
2022/09/26 03:36:25;;;;;;;13.90;8.38;;;12.50;99.90;;;;;;4949881;28;20082;-59
2022/09/26 03:38:50;;;;;;;10.70;8.35;;;12.50;99.90;;;;;;4960381;28;20208;-57
2022/09/26 03:41:16;;;;;;;10.75;7.93;;;12.60;99.90;;;;;;4955069;28;20403;-59
2022/09/26 03:43:42;;;;;;;13.63;8.40;;;12.50;99.90;;;;;;4958721;28;20092;-58
2022/09/26 03:46:10;;;;;;;13.23;8.30;;;12.50;99.90;;;;;;4951233;28;20107;-59
2022/09/26 03:48:36;;;;;;;10.45;8.30;;;12.50;99.90;;;;;;4951579;28;20429;-59
2022/09/26 03:51:07;;;;;;;13.13;8.25;;;12.50;99.90;;;;;;4958317;28;20042;-58
2022/09/26 03:53:36;;;;;;;12.65;7.88;;;12.60;99.90;;;;;;4952506;28;20030;-58
2022/09/26 03:56:14;;;;;;;10.75;8.02;;;12.50;99.90;;;;;;4954308;28;20034;-59
2022/09/26 03:58:41;;;;;;;12.10;7.97;;;12.50;99.90;;;;;;4953434;28;20047;-58
2022/09/26 04:01:18;;;;;;;11.25;7.70;;;12.60;99.90;;;;;;4955041;28;20402;-59
2022/09/26 04:03:45;;;;;;;12.40;7.85;;;12.50;99.90;;;;;;4953324;28;20122;-58
2022/09/26 04:06:12;;;;;;;14.98;7.63;;;12.70;99.90;;;;;;4952791;28;20121;-59
2022/09/26 04:08:39;;;;;;;10.13;6.72;;;12.50;99.90;;;;;;4959444;28;20038;-58
2022/09/26 04:11:10;;;;;;;13.05;7.80;;;12.50;99.90;;;;;;4958981;28;20038;-59
2022/09/26 04:13:36;;;;;;;13.93;7.47;;;12.50;99.90;;;;;;4959446;28;20439;-59
2022/09/26 04:16:04;;;;;;;10.68;7.07;;;12.40;99.90;;;;;;4956135;28;20046;-58
2022/09/26 04:18:31;;;;;;;14.98;7.85;;;12.40;99.90;;;;;;4959239;28;20062;-58
2022/09/26 04:21:08;;;;;;;11.02;7.40;;;12.40;99.90;;;;;;4960286;28;20209;-59
2022/09/26 04:23:36;;;;;;;14.57;7.18;;;12.30;99.90;;;;;;4955546;28;20038;-59
2022/09/26 04:26:10;;;;;;;10.43;7.18;;;12.30;99.90;;;;;;4950868;28;20443;-59
2022/09/26 04:28:37;;;;;;;13.70;7.05;;;12.40;99.90;;;;;;4953188;28;20032;-59
2022/09/26 04:31:05;;;;;;;10.60;6.70;;;12.60;99.90;;;;;;4957464;28;20066;-59
2022/09/26 04:33:32;;;;;;;14.13;6.63;;;12.50;99.90;;;;;;4953342;28;20034;-59
2022/09/26 04:36:03;;;;;;;11.05;6.65;;;12.50;99.90;;;;;;4960992;28;20109;-59
2022/09/26 04:38:32;;;;;;;10.93;6.32;;;12.40;99.90;;;;;;4956069;28;20412;-59
2022/09/26 04:41:06;;;;;;;9.50;5.95;;;12.40;99.90;;;;;;4961994;28;20050;-59
2022/09/26 04:43:32;;;;;;;11.90;6.25;;;12.30;99.90;;;;;;4958568;28;20031;-58
2022/09/26 04:45:57;;;;;;;9.10;6.13;;;12.30;99.90;;;;;;4958887;28;20066;-58
2022/09/26 04:48:23;;;;;;;11.93;6.40;;;12.50;99.90;;;;;;4965168;28;20051;-59
2022/09/26 04:50:49;;;;;;;11.90;6.35;;;12.50;99.90;;;;;;4957697;28;20062;-59
2022/09/26 04:53:16;;;;;;;12.95;5.93;;;12.50;99.90;;;;;;4956214;28;20501;-58
2022/09/26 04:55:43;;;;;;;10.10;6.20;;;12.40;99.90;;;;;;4954279;28;20484;-58
2022/09/26 04:58:09;;;;;;;10.50;5.97;;;12.40;99.90;;;;;;4966265;28;20054;-59
2022/09/26 05:00:35;;;;;;;11.88;5.82;;;12.40;99.90;;;;;;4955337;28;20039;-58
2022/09/26 05:03:00;;;;;;;9.25;5.78;;;12.50;99.90;;;;;;4961490;28;20038;-59
2022/09/26 05:05:29;;;;;;;12.55;6.28;;;12.40;99.90;;;;;;4958441;28;20043;-59
2022/09/26 05:07:56;;;;;;;11.68;6.18;;;12.40;99.90;;;;;;4964762;28;20415;-58
2022/09/26 05:10:22;;;;;;;13.20;5.68;;;12.30;99.90;;;;;;4963496;28;20848;-59
2022/09/26 05:12:47;;;;;;;10.90;5.53;;;12.20;99.90;;;;;;4955941;28;20041;-59
2022/09/26 05:15:13;;;;;;;11.40;5.88;;;12.30;99.90;;;;;;4963582;28;20501;-59
2022/09/26 05:17:38;;;;;;;14.00;5.38;;;12.20;99.90;;;;;;4961793;28;20073;-58
2022/09/26 05:20:09;;;;;;;13.35;5.80;;;12.20;99.90;;;;;;4961553;28;20055;-59
2022/09/26 05:22:35;;;;;;;10.75;5.47;;;12.20;99.90;;;;;;4955831;28;20115;-59
2022/09/26 05:27:49;;;;;;;7.60;4.65;;;12.20;99.90;;;;;;4954675;28;20046;-59
2022/09/26 05:30:15;;;;;;;14.93;5.25;;;12.20;99.90;;;;;;4958014;28;20046;-59
2022/09/26 05:32:44;;;;;;;10.73;5.13;;;12.20;99.90;;;;;;4958139;28;20034;-57
2022/09/26 05:35:10;;;;;;;10.43;4.82;;;12.20;99.90;;;;;;4954713;28;20363;-58
2022/09/26 05:37:36;;;;;;;12.75;5.55;;;12.30;99.90;;;;;;4954068;28;20045;-59
2022/09/26 05:42:45;;;;;;;9.23;4.28;;;12.20;99.90;;;;;;4954642;28;20473;-59
2022/09/26 05:45:14;;;;;;;11.93;4.40;;;12.20;99.90;;;;;;4958543;28;20035;-59
2022/09/26 05:47:40;;;;;;;9.20;4.28;;;12.30;99.90;;;;;;4951923;28;20030;-56
2022/09/26 05:50:08;;;;;;;7.55;4.03;;;12.10;99.90;;;;;;4956539;28;20086;-58
2022/09/26 05:52:38;;;;;;;10.73;4.05;;;12.20;99.90;;;;;;4956670;28;20500;-57
2022/09/26 05:55:04;;;;;;;12.80;4.20;;;12.20;99.90;;;;;;4950742;28;20085;-59
2022/09/26 05:57:30;;;;;;;11.10;3.83;;;12.20;99.90;;;;;;4959593;28;20031;-58
2022/09/26 05:59:55;;;;;;;10.82;4.38;;;12.30;99.90;;;;;;4962425;28;20047;-59
2022/09/26 06:02:21;;;;;;;9.85;4.25;;;12.40;99.90;;;;;;4960813;28;20162;-59
2022/09/26 06:04:46;;;;;;;9.75;4.18;;;12.30;99.90;;;;;;4955323;28;20113;-59
2022/09/26 06:07:12;;;;;;;9.38;3.75;;;12.30;99.90;;;;;;4951407;28;20046;-58
2022/09/26 06:09:38;;;;;;;10.65;3.72;;;12.40;99.90;;;;;;4959372;28;20109;-59
2022/09/26 06:12:03;;;;;;;8.05;3.15;;;12.50;99.90;;;;;;4953817;28;20039;-58
2022/09/26 06:14:30;;;;;;;11.60;4.15;;;12.50;99.90;;;;;;4959453;28;20046;-58
2022/09/26 06:16:56;;;;;;;9.23;3.95;;;12.50;99.90;;;;;;4961591;28;20046;-59
2022/09/26 06:19:22;;;;;;;7.57;3.80;;;12.30;99.90;;;;;;4960069;28;20039;-58
2022/09/26 06:21:47;;;;;;;8.55;3.70;;;12.30;99.90;;;;;;4961287;28;20043;-59
2022/09/26 06:24:13;;;;;;;11.02;3.92;;;12.40;99.90;;;;;;4954541;28;20058;-59
2022/09/26 06:26:38;;;;;;;8.27;3.55;;;12.40;99.90;;;;;;4953485;28;20732;-59
2022/09/26 06:29:06;;;;;;;7.78;3.60;;;12.30;99.90;;;;;;4961992;28;20129;-58
2022/09/26 06:31:32;;;;;;;9.48;3.72;;;12.40;99.90;;;;;;4960033;28;20050;-59
2022/09/26 06:34:00;;;;;;;6.80;3.35;;;12.40;99.90;;;;;;4955778;28;20046;-58
2022/09/26 06:36:26;;;;;;;7.13;3.50;;;12.30;99.90;;;;;;4956451;28;20114;-59
2022/09/26 06:38:53;;;;;;;7.95;3.30;;;12.20;99.90;;;;;;4963050;28;20061;-59
2022/09/26 06:41:19;;;;;;;8.13;3.47;;;12.20;99.90;;;;;;4956113;28;20514;-58
2022/09/26 06:43:45;;;;;;;11.30;3.40;;;12.40;99.90;;;;;;4956466;28;20032;-59
2022/09/26 06:46:12;;;;;;;6.63;3.70;;;12.40;99.90;;;;;;4952780;28;20199;-58
2022/09/26 06:48:38;;;;;;;7.60;3.60;;;12.50;99.90;;;;;;4950739;28;20043;-58
2022/09/26 06:51:04;;;;;;;9.30;3.40;;;12.60;99.90;;;;;;4955604;28;20046;-58
2022/09/26 06:53:30;;;;;;;8.05;3.40;;;12.60;99.90;;;;;;4954067;28;20487;-58
2022/09/26 06:55:57;;;;;;;7.05;3.42;;;12.70;99.90;;;;;;4959486;28;20049;-59
2022/09/26 06:58:23;;;;;;;9.52;3.53;;;12.60;99.90;;;;;;4957523;28;20082;-59
2022/09/26 07:00:48;;;;;;;10.43;3.60;;;12.60;99.90;;;;;;4955227;28;20504;-59
2022/09/26 07:03:14;;;;;;;7.15;3.35;;;12.60;99.90;;;;;;4958691;28;20054;-59
2022/09/26 07:05:41;;;;;;;7.22;3.42;;;12.60;99.90;;;;;;4955072;28;20128;-59
2022/09/26 07:08:07;;;;;;;10.45;3.70;;;12.60;99.90;;;;;;4961013;28;20073;-59
2022/09/26 07:10:35;;;;;;;8.38;4.18;;;12.50;99.90;;;;;;4960427;28;20094;-59
2022/09/26 07:13:03;;;;;;;7.35;3.72;;;12.40;99.90;;;;;;4955355;28;20074;-59
2022/09/26 07:15:31;;;;;;;8.10;4.10;;;12.40;99.90;;;;;;4955968;28;20042;-60
2022/09/26 07:18:01;;;;;;;8.65;4.18;;;12.30;99.90;;;;;;4957404;28;20047;-60
2022/09/26 07:20:28;;;;;;;8.82;3.67;;;12.10;99.90;;;;;;4957535;28;20043;-60
2022/09/26 07:22:53;;;;;;;11.00;3.83;;;12.10;99.90;;;;;;4982239;28;20050;-59
2022/09/26 07:25:19;;;;;;;8.07;3.45;;;11.90;99.90;;;;;;4957459;28;20592;-60
2022/09/26 07:27:49;;;;;;;8.07;3.92;;;11.80;99.90;;;;;;4956678;28;20031;-60
2022/09/26 07:30:15;;;;;;;12.45;4.28;;;12.00;99.90;;;;;;4955907;28;20035;-59
2022/09/26 07:32:46;;;;;;;7.85;4.05;;;12.10;99.90;;;;;;4954323;28;20035;-60
2022/09/26 07:35:13;;;;;;;14.85;4.03;;;12.30;99.90;;;;;;4957388;28;20038;-59
2022/09/26 07:37:38;;;;;;;9.60;4.43;;;12.30;99.90;;;;;;4949052;28;20464;-60
2022/09/26 07:40:04;;;;;;;9.23;3.60;;;12.30;99.90;;;;;;4958477;28;20031;-59
2022/09/26 07:42:30;;;;;;;10.55;4.25;;;12.40;99.90;;;;;;4957387;28;20046;-60
2022/09/26 07:44:56;;;;;;;13.52;3.63;;;12.10;99.90;;;;;;4963021;28;20057;-60
2022/09/26 07:50:15;;;;;;;10.18;3.85;;;12.30;99.90;;;;;;4956314;28;20085;-59
2022/09/26 07:52:46;;;;;;;7.43;3.83;;;12.10;99.90;;;;;;4951724;28;20114;-59
2022/09/26 07:55:23;;;;;;;5.68;3.50;;;12.30;99.90;;;;;;4951677;28;20415;-59
2022/09/26 07:57:48;;;;;;;8.50;3.67;;;12.20;99.90;;;;;;4953207;28;20121;-59
2022/09/26 08:00:17;;;;;;;8.30;3.47;;;12.20;99.90;;;;;;4956413;28;20135;-60
2022/09/26 08:02:45;;;;;;;5.40;3.50;;;12.10;99.90;;;;;;4954135;28;20771;-60
2022/09/26 08:05:18;;;;;;;9.13;3.33;;;12.20;99.90;;;;;;4953687;28;20098;-60
2022/09/26 08:07:45;;;;;;;8.32;2.95;;;12.10;99.90;;;;;;4948554;28;20030;-59
2022/09/26 08:10:20;;;;;;;7.75;3.08;;;12.10;99.90;;;;;;4957301;28;20070;-59
2022/09/26 08:12:47;;;;;;;7.00;2.90;;;12.20;99.90;;;;;;4957824;28;20060;-60
2022/09/26 08:15:13;;;;;;;11.57;2.92;;;12.20;99.90;;;;;;4955022;28;20046;-59
2022/09/26 08:17:39;;;;;;;5.93;2.78;;;12.00;99.90;;;;;;4959975;28;20050;-60
2022/09/26 08:20:06;;;;;;;7.47;3.33;;;12.10;99.90;;;;;;4960133;28;20042;-59
2022/09/26 08:22:31;;;;;;;8.10;3.10;;;12.00;99.90;;;;;;4957873;28;20645;-60
2022/09/26 08:24:59;;;;;;;7.65;2.90;;;12.00;99.90;;;;;;4960826;28;20035;-59
2022/09/26 08:27:25;;;;;;;7.07;3.55;;;12.00;99.90;;;;;;4958000;28;20039;-59
2022/09/26 08:29:51;;;;;;;6.43;3.28;;;12.10;99.90;;;;;;4960827;28;20539;-58
2022/09/26 08:32:18;;;;;;;4.85;2.58;;;12.00;99.90;;;;;;4960022;28;20042;-59
2022/09/26 08:34:45;;;;;;;5.50;2.38;;;12.00;99.90;;;;;;4956766;28;20042;-60
2022/09/26 08:37:11;;;;;;;4.78;2.30;;;11.90;99.90;;;;;;4959618;28;20047;-59
2022/09/26 08:39:38;;;;;;;5.43;3.08;;;11.90;99.90;;;;;;4958153;28;20455;-60
2022/09/26 08:42:22;;;;;;;3.42;2.35;;;11.90;99.90;;;;;;4954094;28;20423;-60
2022/09/26 08:44:57;;;;;;;7.72;2.25;;;12.00;99.90;;;;;;4962025;28;20698;-59
2022/09/26 08:47:33;;;;;;;9.55;2.55;;;12.10;99.90;;;;;;4957338;28;20126;-60
2022/09/26 08:50:31;;;;;;;5.88;2.20;;;12.20;99.90;;;;;;4953633;28;20121;-60
2022/09/26 08:53:09;;;;;;;5.18;2.10;;;12.20;99.90;;;;;;4955154;28;21010;-59
2022/09/26 08:55:40;;;;;;;4.82;2.20;;;12.10;99.90;;;;;;4955389;28;20522;-59
2022/09/26 08:58:41;;;;;;;4.57;2.10;;;12.00;99.90;;;;;;4955158;28;20031;-59
2022/09/26 09:01:14;;;;;;;4.90;2.38;;;12.10;99.90;;;;;;4955813;28;20347;-59
2022/09/26 09:03:52;;;;;;;6.18;2.40;;;12.10;99.90;;;;;;4958611;28;20036;-59
2022/09/26 09:06:18;;;;;;;8.07;5.68;;;12.10;99.90;;;;;;4954002;28;20062;-58
2022/09/26 09:08:45;;;;;;;9.27;3.10;;;;;;;;;;4957276;28;20035;-59
2022/09/26 09:12:09;;;;;;;5.45;2.30;;;12.40;99.90;;;;;;4960422;28;20118;-59
2022/09/26 09:14:56;;;;;;;87.22;58.08;;;12.20;99.90;;;;;;4915803;28;20102;-58
2022/09/26 09:17:53;;;;;;;7.55;2.60;;;12.40;99.90;;;;;;4957820;28;20134;-60
2022/09/26 09:20:51;;;;;;;7.75;2.60;;;12.40;99.90;;;;;;4956149;28;20056;-61
2022/09/26 09:23:33;;;;;;;7.43;2.58;;;12.50;99.90;;;;;;4956147;28;20134;-60
2022/09/26 09:26:17;;;;;;;8.55;2.92;;;12.40;99.90;;;;;;4954919;28;20136;-59
2022/09/26 09:29:14;;;;;;;5.10;2.40;;;12.20;99.90;;;;;;4958430;28;20046;-58
2022/09/26 09:31:42;;;;;;;7.25;2.40;;;12.20;99.90;;;;;;4955232;28;20411;-58
2022/09/26 09:34:13;;;;;;;5.97;2.58;;;12.20;99.90;;;;;;4958342;28;20035;-60
2022/09/26 09:36:49;;;;;;;5.10;2.20;;;12.20;99.90;;;;;;4956997;28;20106;-59
2022/09/26 09:39:28;;;;;;;7.35;2.58;;;12.30;99.90;;;;;;4955117;28;20043;-59
2022/09/26 09:41:58;;;;;;;3.75;2.58;;;12.40;99.90;;;;;;4958177;28;20035;-59
2022/09/26 09:44:37;;;;;;;6.90;2.72;;;12.30;99.90;;;;;;4957125;28;20031;-59
2022/09/26 09:47:12;;;;;;;5.78;3.45;;;12.40;99.90;;;;;;4973378;28;20034;-59
2022/09/26 09:49:37;;;;;;;5.32;2.53;;;12.50;99.90;;;;;;4955287;28;20054;-59
2022/09/26 09:53:05;;;;;;;6.53;2.33;;;12.50;99.90;;;;;;4954392;28;20039;-59
2022/09/26 09:55:44;;;;;;;6.95;2.55;;;12.60;99.90;;;;;;4898762;29;20380;-59
2022/09/26 09:58:45;;;;;;;6.03;2.42;;;12.50;99.90;;;;;;4952711;28;20079;-59
2022/09/26 10:01:24;;;;;;;8.50;2.47;;;12.60;99.90;;;;;;4953344;28;20154;-60
2022/09/26 10:04:13;;;;;;;4.32;2.45;;;12.60;99.90;;;;;;4952426;28;20106;-60
2022/09/26 10:06:40;;;;;;;4.47;2.30;;;12.80;99.90;;;;;;4957440;28;20034;-60
2022/09/26 10:09:18;;;;;;;4.90;2.30;;;12.70;99.90;;;;;;4955749;28;20462;-59
2022/09/26 10:11:44;;;;;;;5.35;2.22;;;12.80;99.90;;;;;;4952563;28;20086;-60
2022/09/26 10:14:14;;;;;;;3.72;2.30;;;12.70;99.90;;;;;;4951393;28;20110;-59
2022/09/26 10:17:08;;;;;;;4.90;2.38;;;12.80;99.90;;;;;;4958200;28;20047;-59
2022/09/26 10:19:37;;;;;;;3.03;2.00;;;12.90;99.90;;;;;;4960052;28;20164;-60
2022/09/26 10:22:08;;;;;;;4.75;2.10;;;12.90;99.90;;;;;;4955392;28;20407;-59
2022/09/26 10:24:39;;;;;;;6.72;2.35;;;13.00;99.90;;;;;;4955138;28;20565;-59
2022/09/26 10:27:30;;;;;;;3.72;2.10;;;13.00;99.90;;;;;;4953888;28;20115;-59
2022/09/26 10:29:58;;;;;;;5.07;2.03;;;13.10;99.90;;;;;;4955483;28;20097;-59
2022/09/26 10:32:25;;;;;;;6.05;2.20;;;13.20;99.90;;;;;;4951927;28;20042;-59
2022/09/26 10:35:24;;;;;;;6.35;2.13;;;13.30;99.90;;;;;;4959708;28;20070;-59
2022/09/26 10:38:16;;;;;;;5.93;2.30;;;13.50;99.90;;;;;;4938321;28;20031;-58
2022/09/26 10:40:52;;;;;;;6.90;2.60;;;13.70;99.90;;;;;;4949045;28;20082;-59
2022/09/26 10:43:21;;;;;;;5.50;1.95;;;13.70;99.90;;;;;;4958117;28;20051;-59
2022/09/26 10:45:54;;;;;;;8.13;2.08;;;13.80;99.90;;;;;;4957307;28;20113;-58
2022/09/26 10:48:26;;;;;;;3.63;2.05;;;13.90;99.90;;;;;;4957697;28;20062;-58
2022/09/26 10:51:00;;;;;;;7.40;1.80;;;13.90;99.90;;;;;;4955954;28;20041;-59
2022/09/26 10:53:35;;;;;;;5.45;1.90;;;14.10;99.90;;;;;;4948114;28;20030;-58
2022/09/26 10:56:14;;;;;;;4.30;2.05;;;14.00;99.90;;;;;;4951782;28;20050;-59
2022/09/26 10:58:43;;;;;;;4.45;1.90;;;13.80;99.90;;;;;;4954474;28;20503;-59
2022/09/26 11:01:21;;;;;;;3.63;1.70;;;14.10;99.90;;;;;;4956548;28;20075;-59
2022/09/26 11:03:48;;;;;;;5.72;1.95;;;13.90;99.90;;;;;;4955235;28;20039;-59
2022/09/26 11:06:34;;;;;;;3.80;1.88;;;14.10;99.90;;;;;;4953682;28;20594;-60
2022/09/26 11:09:02;;;;;;;6.78;1.80;;;14.20;99.90;;;;;;4953025;28;20039;-59
2022/09/26 11:11:32;;;;;;;4.55;1.98;;;14.10;99.90;;;;;;4953401;28;20180;-58
2022/09/26 11:14:07;;;;;;;6.85;1.98;;;14.20;99.90;;;;;;4950751;28;20122;-59
2022/09/26 11:16:47;;;;;;;5.38;1.77;;;14.30;99.90;;;;;;4955318;28;20038;-59
2022/09/26 11:19:38;;;;;;;5.90;1.85;;;14.30;99.90;;;;;;4956245;28;20033;-58
2022/09/26 11:22:31;;;;;;;6.28;1.73;;;14.30;99.90;;;;;;4956192;28;20800;-58
2022/09/26 11:24:59;;;;;;;3.85;1.70;;;14.40;99.90;;;;;;4955916;28;20035;-60
2022/09/26 11:27:47;;;;;;;5.25;1.70;;;14.50;99.90;;;;;;4953374;28;20038;-59
2022/09/26 11:30:19;;;;;;;6.57;1.98;;;14.50;99.90;;;;;;4957527;28;20142;-59
2022/09/26 11:32:50;;;;;;;4.85;1.63;;;14.60;99.90;;;;;;4957773;28;20035;-58
2022/09/26 11:35:29;;;;;;;2.75;1.40;;;14.60;99.90;;;;;;4951840;28;20031;-59
2022/09/26 11:38:37;;;;;;;3.97;1.75;;;14.60;99.90;;;;;;4946829;28;20496;-59
2022/09/26 11:41:07;;;;;;;5.63;1.60;;;14.40;99.90;;;;;;4948912;28;20041;-59
2022/09/26 11:43:39;;;;;;;5.65;1.60;;;14.20;99.90;;;;;;4956272;28;20501;-59
2022/09/26 11:46:14;;;;;;;4.20;1.70;;;14.30;99.90;;;;;;4952428;28;20117;-58
2022/09/26 11:48:53;;;;;;;5.85;1.60;;;14.20;99.90;;;;;;4955576;28;20035;-59
2022/09/26 11:51:34;;;;;;;7.10;2.33;;;14.30;99.90;;;;;;4953042;28;20077;-60
2022/09/26 11:54:11;;;;;;;6.55;1.77;;;14.40;99.90;;;;;;4955306;28;20049;-59
2022/09/26 11:56:59;;;;;;;3.90;1.48;;;14.30;99.90;;;;;;4952856;28;20130;-60
2022/09/26 11:59:26;;;;;;;5.50;1.73;;;14.20;99.90;;;;;;4952961;28;20034;-59
2022/09/26 12:02:32;;;;;;;4.88;2.10;;;14.20;99.90;;;;;;4948973;28;20039;-59
2022/09/26 12:05:23;;;;;;;6.25;2.08;;;14.00;99.90;;;;;;4952171;28;20043;-59
2022/09/26 12:08:18;;;;;;;5.20;1.60;;;14.00;99.90;;;;;;4958893;28;20088;-58
2022/09/26 12:10:55;;;;;;;5.65;1.92;;;14.10;99.90;;;;;;4951394;28;20090;-59
2022/09/26 12:13:51;;;;;;;6.43;2.20;;;14.10;99.90;;;;;;4953106;28;20027;-60
2022/09/26 12:17:04;;;;;;;6.38;2.30;;;14.00;99.90;;;;;;4955008;28;20333;-58
2022/09/26 12:19:41;;;;;;;6.03;2.25;;;14.10;99.90;;;;;;4891659;29;20044;-59
2022/09/26 12:22:28;;;;;;;5.68;2.35;;;14.00;99.90;;;;;;4948625;28;20534;-59
2022/09/26 12:25:28;;;;;;;5.97;3.10;;;14.10;99.90;;;;;;4951609;28;20486;-59
2022/09/26 12:28:22;;;;;;;5.35;1.80;;;14.10;99.90;;;;;;4950975;28;20098;-58
2022/09/26 12:31:16;;;;;;;5.35;2.35;;;14.10;99.90;;;;;;4952869;28;20450;-58
2022/09/26 12:33:57;;;;;;;5.55;2.25;;;14.10;99.90;;;;;;4948344;28;20051;-59
2022/09/26 12:36:46;;;;;;;5.57;2.20;;;13.90;99.90;;;;;;4945459;28;20083;-60
2022/09/26 12:39:46;;;;;;;6.30;2.03;;;14.00;99.90;;;;;;4955677;28;20044;-58
2022/09/26 12:42:34;;;;;;;6.80;1.70;;;13.90;99.90;;;;;;4961225;28;20654;-58
2022/09/26 12:45:31;;;;;;;7.55;1.80;;;13.90;99.90;;;;;;4955199;28;20563;-59
2022/09/26 12:48:16;;;;;;;4.85;1.90;;;13.90;99.90;;;;;;4957511;28;20098;-58
2022/09/26 12:50:59;;;;;;;7.32;1.73;;;13.90;99.90;;;;;;4952168;28;20589;-59
2022/09/26 12:53:43;;;;;;;8.20;1.98;;;13.70;99.90;;;;;;4960903;28;20027;-59
2022/09/26 12:56:23;;;;;;;6.88;1.60;;;13.80;99.90;;;;;;4950410;28;20169;-59
2022/09/26 12:59:10;;;;;;;5.00;2.20;;;13.70;99.90;;;;;;4951793;28;20121;-60
2022/09/26 13:01:57;;;;;;;6.45;2.88;;;13.70;99.90;;;;;;4953808;28;20574;-58
2022/09/26 13:05:06;;;;;;;5.38;2.08;;;13.80;99.90;;;;;;4958490;28;20046;-58
2022/09/26 13:07:54;;;;;;;5.00;2.00;;;13.80;99.90;;;;;;4956175;28;20510;-58
2022/09/26 13:10:54;;;;;;;5.63;2.25;;;13.60;99.90;;;;;;4952753;28;20106;-58
2022/09/26 13:13:52;;;;;;;9.05;2.33;;;13.60;99.90;;;;;;4958382;28;20117;-58
2022/09/26 13:16:39;;;;;;;6.22;2.10;;;13.70;99.90;;;;;;4960278;28;20530;-58
2022/09/26 13:19:20;;;;;;;5.20;2.08;;;13.70;99.90;;;;;;4958907;28;20037;-58
2022/09/26 13:21:54;;;;;;;11.50;4.90;;;13.60;99.90;;;;;;4955903;28;20137;-59
2022/09/26 13:24:23;;;;;;;7.65;2.83;;;13.50;99.90;;;;;;4949519;28;20169;-58
2022/09/26 13:27:15;;;;;;;5.60;2.30;;;13.50;99.90;;;;;;4953802;28;20071;-58
2022/09/26 13:29:45;;;;;;;5.00;2.47;;;13.50;99.90;;;;;;4959877;28;20513;-59